createdAt,value
2023-01-31T00:01:37.578Z,102162.41
2023-01-31T00:04:07.800Z,102171.31
2023-01-31T00:06:38.876Z,102181.19
2023-01-31T00:09:08.349Z,102187.47
2023-01-31T00:11:36.203Z,102186.72
2023-01-31T00:14:05.106Z,102187.81
2023-01-31T00:16:32.360Z,102178.94
2023-01-31T00:18:59.319Z,102169.41
2023-01-31T00:21:29.312Z,102180.03
2023-01-31T00:23:57.787Z,102181.03
2023-01-31T00:26:30.675Z,102180.22
2023-01-31T00:29:00.329Z,102177.56
2023-01-31T00:31:30.772Z,102179.31
2023-01-31T00:33:59.042Z,102174.09
2023-01-31T00:36:31.909Z,102174.97
2023-01-31T00:39:01.009Z,102179.31
2023-01-31T00:41:29.782Z,102169.59
2023-01-31T00:43:57.863Z,102167.94
2023-01-31T00:46:25.211Z,102168.00
2023-01-31T00:48:52.700Z,102161.97
2023-01-31T00:51:21.691Z,102160.25
2023-01-31T00:53:50.514Z,102165.56
2023-01-31T00:56:22.993Z,102178.81
2023-01-31T00:58:50.967Z,102183.34
2023-01-31T01:01:24.540Z,102179.91
2023-01-31T01:03:52.200Z,102185.31
2023-01-31T01:06:19.696Z,102180.00
2023-01-31T01:08:46.980Z,102176.53
2023-01-31T01:11:18.802Z,102176.66
2023-01-31T01:13:47.239Z,102169.66
2023-01-31T01:16:17.864Z,102173.16
2023-01-31T01:18:48.401Z,102176.88
2023-01-31T01:21:16.877Z,102179.66
2023-01-31T01:23:44.152Z,102183.25
2023-01-31T01:26:17.355Z,102188.56
2023-01-31T01:28:44.735Z,102192.13
2023-01-31T01:31:13.350Z,102192.31
2023-01-31T01:33:41.499Z,102193.22
2023-01-31T01:36:13.394Z,102191.59
2023-01-31T01:38:42.296Z,102195.19
2023-01-31T01:41:10.998Z,102203.25
2023-01-31T01:43:54.621Z,102196.28
2023-01-31T01:46:30.534Z,102194.59
2023-01-31T01:49:12.844Z,102184.91
2023-01-31T01:51:42.376Z,102183.22
2023-01-31T01:54:14.878Z,102192.06
2023-01-31T01:56:46.641Z,102184.28
2023-01-31T01:59:23.031Z,102181.88
2023-01-31T02:01:51.085Z,102173.97
2023-01-31T02:04:23.517Z,102172.22
2023-01-31T02:06:51.616Z,102175.03
2023-01-31T02:10:00.300Z,102183.03
2023-01-31T02:12:29.996Z,102179.88
2023-01-31T02:14:57.125Z,102188.66
2023-01-31T02:17:25.662Z,102173.63
2023-01-31T02:20:02.187Z,102177.28
2023-01-31T02:22:48.395Z,102186.19
2023-01-31T02:25:55.647Z,102174.97
2023-01-31T02:28:55.309Z,102166.19
2023-01-31T02:31:41.303Z,102171.59
2023-01-31T02:34:08.974Z,102177.94
2023-01-31T02:36:44.927Z,102176.03
2023-01-31T02:39:17.724Z,102172.50
2023-01-31T02:41:55.798Z,102173.41
2023-01-31T02:45:01.752Z,102176.97
2023-01-31T02:47:58.342Z,102185.06
2023-01-31T02:50:39.472Z,102174.59
2023-01-31T02:53:30.769Z,102174.72
2023-01-31T02:56:18.459Z,102165.97
2023-01-31T02:59:01.098Z,102160.78
2023-01-31T03:01:33.141Z,102169.75
2023-01-31T03:04:04.785Z,102172.66
2023-01-31T03:06:33.736Z,102170.06
2023-01-31T03:09:25.158Z,102173.75
2023-01-31T03:12:19.503Z,102163.22
2023-01-31T03:14:53.097Z,102168.72
2023-01-31T03:17:33.256Z,102177.69
2023-01-31T03:20:20.817Z,102177.78
2023-01-31T03:23:00.383Z,102183.94
2023-01-31T03:25:33.565Z,102178.69
2023-01-31T03:28:09.547Z,102180.47
2023-01-31T03:30:47.083Z,102190.19
2023-01-31T03:33:17.246Z,102182.22
2023-01-31T03:35:51.670Z,102190.13
2023-01-31T03:38:25.991Z,102193.69
2023-01-31T03:41:02.339Z,102187.47
2023-01-31T03:44:01.828Z,102182.09
2023-01-31T03:46:40.298Z,102192.13
2023-01-31T03:49:11.960Z,102189.31
2023-01-31T03:51:45.005Z,102184.03
2023-01-31T03:54:19.513Z,102188.47
2023-01-31T03:56:54.578Z,102184.91
2023-01-31T03:59:28.221Z,102189.25
2023-01-31T04:01:57.617Z,102184.84
2023-01-31T04:05:04.854Z,102182.22
2023-01-31T04:07:32.506Z,102181.34
2023-01-31T04:09:59.782Z,102187.53
2023-01-31T04:12:26.913Z,102191.06
2023-01-31T04:14:53.862Z,102187.69
2023-01-31T04:17:20.906Z,102179.72
2023-01-31T04:19:47.798Z,102181.53
2023-01-31T04:22:14.949Z,102182.50
2023-01-31T04:24:42.036Z,102186.94
2023-01-31T04:27:08.956Z,102188.72
2023-01-31T04:29:35.889Z,102196.63
2023-01-31T04:32:03.005Z,102196.66
2023-01-31T04:34:34.161Z,102199.41
2023-01-31T04:37:01.483Z,102197.69
2023-01-31T04:39:28.583Z,102196.78
2023-01-31T04:41:55.841Z,102203.91
2023-01-31T04:44:22.827Z,102207.53
2023-01-31T04:46:49.845Z,102211.16
2023-01-31T04:49:16.863Z,102219.94
2023-01-31T04:51:43.888Z,102226.19
2023-01-31T04:54:11.081Z,102222.72
2023-01-31T04:56:38.138Z,102217.41
2023-01-31T04:59:05.398Z,102220.13
2023-01-31T05:01:32.828Z,102224.59
2023-01-31T05:03:59.752Z,102231.78
2023-01-31T05:06:26.656Z,102215.97
2023-01-31T05:08:54.701Z,102215.06
2023-01-31T05:11:21.845Z,102204.53
2023-01-31T05:13:48.905Z,102200.06
2023-01-31T05:16:15.898Z,102201.00
2023-01-31T05:18:42.803Z,102206.38
2023-01-31T05:21:11.449Z,102203.84
2023-01-31T05:23:39.012Z,102213.50
2023-01-31T05:26:05.994Z,102216.16
2023-01-31T05:28:32.893Z,102221.53
2023-01-31T05:31:06.814Z,102214.59
2023-01-31T05:33:34.811Z,102212.81
2023-01-31T05:36:02.643Z,102211.22
2023-01-31T05:38:29.697Z,102220.16
2023-01-31T05:40:56.579Z,102213.13
2023-01-31T05:43:23.828Z,102206.94
2023-01-31T05:45:50.895Z,102192.16
2023-01-31T05:48:17.845Z,102195.69
2023-01-31T06:07:19.266Z,102205.94
2023-01-31T06:09:46.187Z,102200.19
2023-01-31T06:12:14.821Z,102200.63
2023-01-31T06:14:41.815Z,102204.38
2023-01-31T06:17:08.857Z,102202.00
2023-01-31T06:19:35.809Z,102195.34
2023-01-31T06:22:02.757Z,102203.31
2023-01-31T06:24:29.825Z,102195.63
2023-01-31T06:26:56.981Z,102207.84
2023-01-31T06:29:24.041Z,102212.25
2023-01-31T06:31:51.107Z,102205.22
2023-01-31T06:34:18.243Z,102202.56
2023-01-31T06:36:45.145Z,102208.69
2023-01-31T06:39:13.759Z,102202.56
2023-01-31T06:41:40.713Z,102200.81
2023-01-31T06:44:07.968Z,102202.59
2023-01-31T06:46:35.482Z,102216.69
2023-01-31T06:49:02.486Z,102223.00
2023-01-31T06:51:30.312Z,102215.78
2023-01-31T06:53:57.580Z,102222.06
2023-01-31T06:56:24.460Z,102220.22
2023-01-31T06:58:51.413Z,102217.44
2023-01-31T07:01:18.394Z,102219.19
2023-01-31T07:03:45.325Z,102226.13
2023-01-31T07:06:12.504Z,102218.13
2023-01-31T07:08:39.564Z,102227.44
2023-01-31T07:11:06.683Z,102224.16
2023-01-31T07:13:34.031Z,102224.38
2023-01-31T07:16:01.092Z,102216.22
2023-01-31T07:18:28.125Z,102210.22
2023-01-31T07:20:55.139Z,102215.66
2023-01-31T07:23:22.113Z,102222.56
2023-01-31T07:25:49.025Z,102227.06
2023-01-31T07:28:16.308Z,102228.91
2023-01-31T07:30:44.016Z,102240.38
2023-01-31T07:33:11.965Z,102241.13
2023-01-31T07:35:38.994Z,102244.78
2023-01-31T07:38:05.934Z,102247.03
2023-01-31T07:40:33.275Z,102250.94
2023-01-31T07:43:00.594Z,102248.06
2023-01-31T07:45:28.206Z,102266.50
2023-01-31T07:47:59.230Z,102271.50
2023-01-31T07:50:27.478Z,102261.44
2023-01-31T07:52:54.473Z,102265.88
2023-01-31T07:55:21.832Z,102264.19
2023-01-31T07:57:49.053Z,102274.91
2023-01-31T08:00:35.102Z,102271.56
2023-01-31T08:03:20.910Z,102272.50
2023-01-31T08:05:48.606Z,102266.47
2023-01-31T08:08:15.579Z,102280.88
2023-01-31T08:10:42.516Z,102294.91
2023-01-31T08:13:12.012Z,102303.56
2023-01-31T08:15:39.185Z,102309.13
2023-01-31T08:18:06.730Z,102302.31
2023-01-31T08:20:34.636Z,102303.72
2023-01-31T08:23:01.730Z,102296.88
2023-01-31T08:25:30.695Z,102296.06
2023-01-31T08:27:59.403Z,102303.75
2023-01-31T08:30:27.211Z,102310.22
2023-01-31T08:32:54.198Z,102315.75
2023-01-31T08:35:21.529Z,102320.25
2023-01-31T08:37:49.178Z,102321.25
2023-01-31T08:40:16.166Z,102310.50
2023-01-31T08:42:43.539Z,102318.88
2023-01-31T08:45:11.192Z,102334.06
2023-01-31T08:47:39.230Z,102336.19
2023-01-31T08:50:15.831Z,102334.34
2023-01-31T08:53:00.286Z,102337.56
2023-01-31T08:55:29.188Z,102333.97
2023-01-31T08:58:00.556Z,102344.38
2023-01-31T09:00:28.058Z,102349.34
2023-01-31T09:02:57.448Z,102354.28
2023-01-31T09:05:25.951Z,102354.53
2023-01-31T09:07:53.833Z,102357.44
2023-01-31T09:10:22.240Z,102367.78
2023-01-31T09:12:49.169Z,102368.31
2023-01-31T09:15:16.134Z,102365.41
2023-01-31T09:17:44.039Z,102374.44
2023-01-31T09:20:11.632Z,102379.16
2023-01-31T09:22:38.623Z,102386.25
2023-01-31T09:25:07.327Z,102384.81
2023-01-31T09:27:36.635Z,102388.59
2023-01-31T09:30:04.517Z,102406.06
2023-01-31T09:32:32.107Z,102398.06
2023-01-31T09:34:59.704Z,102391.78
2023-01-31T09:37:29.602Z,102393.22
2023-01-31T09:39:57.216Z,102391.34
2023-01-31T09:42:29.514Z,102402.16
2023-01-31T09:45:00.018Z,102403.94
2023-01-31T09:47:31.035Z,102409.59
2023-01-31T09:50:13.024Z,102419.84
2023-01-31T09:52:40.025Z,102424.53
2023-01-31T09:55:30.780Z,102421.69
2023-01-31T09:58:28.609Z,102420.94
2023-01-31T10:01:03.239Z,102432.19
2023-01-31T10:03:45.362Z,102431.47
2023-01-31T10:06:21.686Z,102423.47
2023-01-31T10:09:10.741Z,102430.69
2023-01-31T10:11:44.110Z,102420.63
2023-01-31T10:14:48.057Z,102431.16
2023-01-31T10:17:51.953Z,102433.69
2023-01-31T10:20:28.074Z,102429.06
2023-01-31T10:22:55.051Z,102431.03
2023-01-31T10:25:34.996Z,102438.84
2023-01-31T10:28:09.796Z,102438.41
2023-01-31T10:30:59.707Z,102438.19
2023-01-31T10:33:48.026Z,102425.22
2023-01-31T10:36:42.553Z,102423.56
2023-01-31T10:39:21.432Z,102428.66
2023-01-31T10:41:59.945Z,102414.19
2023-01-31T10:44:51.182Z,102409.50
2023-01-31T10:47:20.210Z,102404.13
2023-01-31T10:49:49.671Z,102396.28
2023-01-31T10:52:28.835Z,102402.28
2023-01-31T10:55:33.581Z,102410.75
2023-01-31T10:58:00.623Z,102401.91
2023-01-31T11:00:30.791Z,102402.28
2023-01-31T11:02:58.849Z,102388.72
2023-01-31T11:05:29.172Z,102385.25
2023-01-31T11:07:57.881Z,102388.22
2023-01-31T11:10:31.146Z,102393.78
2023-01-31T11:13:04.807Z,102388.22
2023-01-31T11:15:43.112Z,102371.72
2023-01-31T11:18:23.740Z,102373.25
2023-01-31T11:20:50.928Z,102374.66
2023-01-31T11:23:24.068Z,102370.22
2023-01-31T11:25:52.495Z,102371.59
2023-01-31T11:28:38.512Z,102375.00
2023-01-31T11:31:16.089Z,102364.13
2023-01-31T11:33:47.587Z,102367.91
2023-01-31T11:36:26.858Z,102369.13
2023-01-31T11:38:55.022Z,102360.31
2023-01-31T11:41:35.200Z,102354.47
2023-01-31T11:44:16.184Z,102356.25
2023-01-31T11:46:52.659Z,102356.06
2023-01-31T11:49:33.995Z,102349.09
2023-01-31T11:52:11.979Z,102343.84
2023-01-31T11:54:44.062Z,102352.94
2023-01-31T11:57:23.330Z,102354.03
2023-01-31T11:59:55.518Z,102359.41
2023-01-31T12:02:37.254Z,102355.81
2023-01-31T12:05:16.568Z,102363.50
2023-01-31T12:07:47.779Z,102361.66
2023-01-31T12:10:33.797Z,102363.91
2023-01-31T12:13:17.844Z,102365.69
2023-01-31T12:16:00.632Z,102364.66
2023-01-31T12:18:51.876Z,102357.03
2023-01-31T12:21:28.220Z,102357.78
2023-01-31T12:24:01.253Z,102364.84
2023-01-31T12:26:44.299Z,102359.34
2023-01-31T12:29:25.817Z,102355.50
2023-01-31T12:32:29.079Z,102354.94
2023-01-31T12:35:10.059Z,102349.25
2023-01-31T12:37:49.172Z,102348.66
2023-01-31T12:40:47.938Z,102334.75
2023-01-31T12:43:26.521Z,102334.78
2023-01-31T12:46:07.108Z,102339.28
2023-01-31T12:48:43.123Z,102335.22
2023-01-31T12:51:25.649Z,102331.44
2023-01-31T12:53:59.226Z,102332.00
2023-01-31T12:56:47.947Z,102319.94
2023-01-31T12:59:27.146Z,102321.38
2023-01-31T13:02:12.392Z,102323.41
2023-01-31T13:05:04.313Z,102331.91
2023-01-31T13:07:43.139Z,102321.72
2023-01-31T13:10:34.567Z,102311.44
2023-01-31T13:13:02.761Z,102309.94
2023-01-31T13:15:29.562Z,102305.50
2023-01-31T13:18:03.526Z,102311.44
2023-01-31T13:20:42.692Z,102303.31
2023-01-31T13:23:24.796Z,102304.28
2023-01-31T13:26:23.772Z,102302.91
2023-01-31T13:29:00.551Z,102301.66
2023-01-31T13:31:31.031Z,102305.66
2023-01-31T13:33:58.145Z,102300.72
2023-01-31T13:36:31.976Z,102293.31
2023-01-31T13:39:05.753Z,102301.06
2023-01-31T13:41:34.364Z,102306.97
2023-01-31T13:44:02.345Z,102301.53
2023-01-31T13:46:32.573Z,102297.72
2023-01-31T13:49:10.740Z,102286.75
2023-01-31T13:52:11.769Z,102290.72
2023-01-31T13:54:49.179Z,102296.56
2023-01-31T13:57:29.231Z,102296.63
2023-01-31T14:00:10.313Z,102291.94
2023-01-31T14:02:37.736Z,102283.91
2023-01-31T14:05:26.655Z,102293.81
2023-01-31T14:08:37.705Z,102288.91
2023-01-31T14:11:25.603Z,102293.34
2023-01-31T14:14:19.921Z,102285.84
2023-01-31T14:16:50.887Z,102294.88
2023-01-31T14:19:24.542Z,102292.94
2023-01-31T14:22:04.007Z,102289.03
2023-01-31T14:24:56.887Z,102277.56
2023-01-31T14:27:39.755Z,102277.88
2023-01-31T14:30:07.198Z,102276.94
2023-01-31T14:32:44.811Z,102277.06
2023-01-31T14:35:14.805Z,102283.22
2023-01-31T14:38:09.561Z,102289.94
2023-01-31T14:41:07.500Z,102284.97
2023-01-31T14:43:56.290Z,102285.91
2023-01-31T14:47:25.873Z,102290.28
2023-01-31T14:50:27.061Z,102291.16
2023-01-31T14:53:32.636Z,102293.47
2023-01-31T14:56:27.847Z,102307.97
2023-01-31T14:58:57.185Z,102291.59
2023-01-31T15:01:34.739Z,102295.78
2023-01-31T15:04:03.885Z,102298.28
2023-01-31T15:06:40.875Z,102305.88
2023-01-31T15:09:18.628Z,102301.16
2023-01-31T15:11:50.463Z,102301.75
2023-01-31T15:14:49.332Z,102315.31
2023-01-31T15:17:40.744Z,102310.16
2023-01-31T15:20:21.890Z,102317.63
2023-01-31T15:22:49.906Z,102313.03
2023-01-31T15:25:35.118Z,102323.56
2023-01-31T15:28:04.127Z,102325.28
2023-01-31T15:30:34.338Z,102329.28
2023-01-31T15:33:13.577Z,102332.63
2023-01-31T15:35:55.743Z,102329.69
2023-01-31T15:38:57.398Z,102323.50
2023-01-31T15:41:42.386Z,102325.94
2023-01-31T15:44:22.517Z,102330.72
2023-01-31T15:46:55.045Z,102333.19
2023-01-31T15:49:38.145Z,102328.19
2023-01-31T15:52:13.903Z,102324.09
2023-01-31T15:55:03.310Z,102341.66
2023-01-31T15:57:41.675Z,102343.66
2023-01-31T16:00:17.685Z,102343.66
2023-01-31T16:02:47.162Z,102352.59
2023-01-31T16:05:23.700Z,102350.88
2023-01-31T16:07:50.941Z,102346.03
2023-01-31T16:10:18.438Z,102346.22
2023-01-31T16:12:49.336Z,102340.53
2023-01-31T16:15:23.908Z,102345.88
2023-01-31T16:17:52.097Z,102347.53
2023-01-31T16:20:39.153Z,102346.91
2023-01-31T16:23:27.137Z,102352.28
2023-01-31T16:25:56.688Z,102345.22
2023-01-31T16:28:24.882Z,102350.91
2023-01-31T16:30:52.296Z,102359.72
2023-01-31T16:33:23.910Z,102361.63
2023-01-31T16:36:16.584Z,102365.41
2023-01-31T16:38:57.445Z,102364.56
2023-01-31T16:41:48.191Z,102365.22
2023-01-31T16:44:19.346Z,102366.69
2023-01-31T16:46:48.215Z,102367.13
2023-01-31T16:49:21.816Z,102364.53
2023-01-31T16:51:50.129Z,102362.97
2023-01-31T16:54:25.779Z,102365.03
2023-01-31T16:57:01.956Z,102366.94
2023-01-31T16:59:35.191Z,102367.78
2023-01-31T17:02:05.544Z,102367.78
2023-01-31T17:04:32.825Z,102368.28
2023-01-31T17:07:06.053Z,102370.91
2023-01-31T17:09:35.539Z,102372.78
2023-01-31T17:12:02.613Z,102379.09
2023-01-31T17:14:30.383Z,102384.59
2023-01-31T17:16:57.327Z,102380.03
2023-01-31T17:19:24.381Z,102373.81
2023-01-31T17:21:51.632Z,102376.44
2023-01-31T17:24:22.723Z,102381.94
2023-01-31T17:26:52.005Z,102385.41
2023-01-31T17:29:20.576Z,102396.09
2023-01-31T17:31:47.600Z,102387.28
2023-01-31T17:34:16.023Z,102384.72
2023-01-31T17:36:44.457Z,102387.53
2023-01-31T17:39:11.576Z,102390.19
2023-01-31T17:41:41.521Z,102387.78
2023-01-31T17:44:13.047Z,102384.34
2023-01-31T17:46:40.528Z,102383.53
2023-01-31T17:49:07.439Z,102381.81
2023-01-31T17:51:34.562Z,102388.97
2023-01-31T17:54:01.486Z,102396.28
2023-01-31T17:56:28.425Z,102390.16
2023-01-31T17:58:55.454Z,102384.78
2023-01-31T18:01:22.407Z,102386.72
2023-01-31T18:03:50.588Z,102385.91
2023-01-31T18:06:17.760Z,102394.09
2023-01-31T18:08:49.039Z,102392.38
2023-01-31T18:11:17.322Z,102394.41
2023-01-31T18:13:45.302Z,102390.25
2023-01-31T18:16:15.700Z,102382.66
2023-01-31T18:18:46.312Z,102388.28
2023-01-31T18:21:16.189Z,102388.44
2023-01-31T18:23:43.219Z,102382.41
2023-01-31T18:26:11.446Z,102381.66
2023-01-31T18:28:38.547Z,102388.91
2023-01-31T18:31:10.797Z,102390.97
2023-01-31T18:33:38.354Z,102385.75
2023-01-31T18:36:06.154Z,102385.91
2023-01-31T18:38:33.555Z,102377.19
2023-01-31T18:41:00.778Z,102388.13
2023-01-31T18:43:31.067Z,102379.31
2023-01-31T18:45:58.046Z,102388.44
2023-01-31T18:48:25.128Z,102379.72
2023-01-31T18:50:52.519Z,102377.16
2023-01-31T18:53:19.502Z,102375.59
2023-01-31T18:55:46.418Z,102383.78
2023-01-31T18:58:13.449Z,102383.13
2023-01-31T19:00:40.427Z,102388.66
2023-01-31T19:03:07.332Z,102386.16
2023-01-31T19:05:37.112Z,102391.66
2023-01-31T19:08:04.175Z,102390.09
2023-01-31T19:10:31.332Z,102388.53
2023-01-31T19:12:58.237Z,102385.03
2023-01-31T19:15:25.363Z,102372.78
2023-01-31T19:17:52.725Z,102376.56
2023-01-31T19:20:19.888Z,102374.16
2023-01-31T19:22:46.792Z,102375.25
2023-01-31T19:25:13.734Z,102383.44
2023-01-31T19:27:41.180Z,102385.34
2023-01-31T19:30:09.163Z,102376.63
2023-01-31T19:32:36.036Z,102368.78
2023-01-31T19:35:03.000Z,102372.53
2023-01-31T19:37:29.945Z,102371.03
2023-01-31T19:39:57.175Z,102372.94
2023-01-31T19:42:24.127Z,102378.44
2023-01-31T19:44:51.248Z,102380.47
2023-01-31T19:47:18.595Z,102385.78
2023-01-31T19:49:45.487Z,102382.44
2023-01-31T19:52:12.443Z,102377.25
2023-01-31T19:54:41.524Z,102378.25
2023-01-31T19:57:08.650Z,102383.72
2023-01-31T19:59:39.101Z,102390.00
2023-01-31T20:02:06.641Z,102391.94
2023-01-31T20:04:36.478Z,102395.69
2023-01-31T20:07:03.624Z,102388.78
2023-01-31T20:09:30.489Z,102387.03
2023-01-31T20:11:57.666Z,102389.03
2023-01-31T20:14:24.765Z,102383.25
2023-01-31T20:16:52.136Z,102389.00
2023-01-31T20:19:20.508Z,102389.19
2023-01-31T20:21:47.697Z,102390.13
2023-01-31T20:24:14.970Z,102392.13
2023-01-31T20:26:42.181Z,102386.31
2023-01-31T20:29:09.968Z,102386.38
2023-01-31T20:31:46.300Z,102392.66
2023-01-31T20:34:13.587Z,102402.25
2023-01-31T20:36:40.455Z,102391.44
2023-01-31T20:39:08.743Z,102392.44
2023-01-31T20:41:37.226Z,102386.25
2023-01-31T20:44:05.479Z,102394.31
2023-01-31T20:46:32.402Z,102400.50
2023-01-31T20:48:59.587Z,102398.75
2023-01-31T20:51:26.576Z,102398.91
2023-01-31T20:53:53.527Z,102395.44
2023-01-31T20:56:20.520Z,102394.44
2023-01-31T20:58:52.330Z,102391.09
2023-01-31T21:01:20.453Z,102395.72
2023-01-31T21:03:52.183Z,102394.88
2023-01-31T21:06:20.731Z,102398.47
2023-01-31T21:08:48.723Z,102397.75
2023-01-31T21:11:16.012Z,102394.22
2023-01-31T21:13:44.105Z,102396.09
2023-01-31T21:16:12.521Z,102393.63
2023-01-31T21:18:40.906Z,102397.25
2023-01-31T21:21:11.223Z,102391.00
2023-01-31T21:23:39.816Z,102394.59
2023-01-31T21:26:12.173Z,102395.78
2023-01-31T21:28:43.760Z,102401.13
2023-01-31T21:31:17.087Z,102396.72
2023-01-31T21:33:49.323Z,102393.97
2023-01-31T21:36:21.147Z,102387.91
2023-01-31T21:38:52.491Z,102394.06
2023-01-31T21:41:38.332Z,102393.13
2023-01-31T21:44:08.047Z,102394.97
2023-01-31T21:46:35.878Z,102395.91
2023-01-31T21:49:02.969Z,102392.38
2023-01-31T21:51:30.124Z,102393.25
2023-01-31T21:53:57.455Z,102383.50
2023-01-31T21:56:26.927Z,102381.00
2023-01-31T21:58:54.847Z,102384.56
2023-01-31T22:01:31.208Z,102397.09
2023-01-31T22:03:59.292Z,102386.50
2023-01-31T22:06:31.422Z,102384.75
2023-01-31T22:09:00.571Z,102383.97
2023-01-31T22:11:35.474Z,102384.03
2023-01-31T22:14:05.613Z,102381.50
2023-01-31T22:16:33.467Z,102378.03
2023-01-31T22:19:01.358Z,102376.38
2023-01-31T22:21:32.924Z,102383.47
2023-01-31T22:24:03.905Z,102381.75
2023-01-31T22:26:34.878Z,102390.69
2023-01-31T22:29:04.231Z,102383.59
2023-01-31T22:31:32.340Z,102374.72
2023-01-31T22:34:00.344Z,102381.94
2023-01-31T22:36:28.142Z,102381.97
2023-01-31T22:38:55.370Z,102378.53
2023-01-31T22:41:22.829Z,102381.22
2023-01-31T22:43:51.599Z,102383.00
2023-01-31T22:46:24.676Z,102381.31
2023-01-31T22:48:53.273Z,102375.25
2023-01-31T22:51:23.452Z,102378.97
2023-01-31T22:53:51.030Z,102378.16
2023-01-31T22:56:18.231Z,102383.66
2023-01-31T22:58:48.716Z,102389.09
2023-01-31T23:01:18.663Z,102384.88
2023-01-31T23:03:56.234Z,102384.09
2023-01-31T23:06:23.810Z,102387.75
2023-01-31T23:08:50.709Z,102379.19
2023-01-31T23:11:18.570Z,102381.88
2023-01-31T23:13:47.955Z,102382.09
2023-01-31T23:16:18.020Z,102378.66
2023-01-31T23:18:45.489Z,102384.19
2023-01-31T23:21:15.915Z,102377.25
2023-01-31T23:23:43.324Z,102380.03
2023-01-31T23:26:10.933Z,102377.47
2023-01-31T23:28:38.793Z,102372.38
2023-01-31T23:31:07.560Z,102376.22
2023-01-31T23:33:34.612Z,102372.72
2023-01-31T23:36:04.996Z,102375.56
2023-01-31T23:38:32.075Z,102376.56
2023-01-31T23:41:02.234Z,102374.81
2023-01-31T23:43:29.539Z,102376.75
2023-01-31T23:46:05.668Z,102378.63
2023-01-31T23:48:32.829Z,102371.91
2023-01-31T23:51:04.727Z,102376.50
2023-01-31T23:53:32.261Z,102379.38
2023-01-31T23:55:59.452Z,102370.50
2023-01-31T23:58:26.553Z,102372.44
